createdAt,value
2022-12-15T00:00:34.613Z,106.78
2022-12-15T00:03:06.368Z,85.65
2022-12-15T00:05:33.208Z,78.28
2022-12-15T00:08:07.507Z,80.93
2022-12-15T00:10:34.564Z,81.95
2022-12-15T00:13:01.350Z,80.60
2022-12-15T00:15:28.146Z,81.57
2022-12-15T00:17:54.942Z,79.55
2022-12-15T00:20:21.704Z,79.45
2022-12-15T00:22:48.408Z,80.80
2022-12-15T00:25:15.156Z,79.45
2022-12-15T00:27:41.798Z,80.65
2022-12-15T00:30:10.085Z,79.85
2022-12-15T00:32:36.812Z,80.07
2022-12-15T00:35:03.653Z,81.65
2022-12-15T00:37:30.347Z,80.68
2022-12-15T00:39:57.017Z,83.97
2022-12-15T00:42:23.705Z,80.75
2022-12-15T00:44:50.422Z,84.22
2022-12-15T00:47:17.302Z,81.25
2022-12-15T00:49:44.007Z,82.03
2022-12-15T00:52:11.765Z,83.30
2022-12-15T00:54:38.507Z,81.75
2022-12-15T00:57:05.356Z,81.85
2022-12-15T00:59:32.091Z,84.50
2022-12-15T01:01:59.211Z,83.05
2022-12-15T01:04:26.248Z,81.43
2022-12-15T01:06:52.937Z,82.93
2022-12-15T01:09:19.646Z,83.68
2022-12-15T01:11:46.779Z,84.85
2022-12-15T01:14:13.683Z,82.88
2022-12-15T01:16:40.420Z,82.90
2022-12-15T01:19:08.808Z,85.65
2022-12-15T01:21:35.607Z,87.65
2022-12-15T01:24:02.299Z,85.60
2022-12-15T01:26:29.217Z,86.80
2022-12-15T01:28:55.980Z,84.20
2022-12-15T01:31:22.771Z,85.90
2022-12-15T01:33:53.869Z,85.20
2022-12-15T01:36:20.566Z,85.90
2022-12-15T01:38:53.712Z,84.05
2022-12-15T01:41:20.892Z,86.75
2022-12-15T01:43:47.632Z,86.95
2022-12-15T01:46:21.189Z,84.35
2022-12-15T01:49:16.599Z,86.72
2022-12-15T01:51:49.682Z,84.55
2022-12-15T01:54:29.354Z,83.82
2022-12-15T01:57:07.551Z,85.90
2022-12-15T01:59:38.795Z,86.30
2022-12-15T02:02:05.844Z,87.03
2022-12-15T02:04:33.442Z,84.32
2022-12-15T02:07:00.110Z,84.18
2022-12-15T02:09:28.189Z,83.88
2022-12-15T02:12:03.918Z,84.53
2022-12-15T02:15:05.998Z,83.03
2022-12-15T02:17:37.536Z,85.18
2022-12-15T02:20:28.647Z,84.50
2022-12-15T02:23:33.542Z,84.30
2022-12-15T02:26:06.252Z,84.32
2022-12-15T02:28:51.878Z,82.15
2022-12-15T02:31:35.099Z,81.55
2022-12-15T02:34:13.848Z,83.20
2022-12-15T02:36:45.097Z,87.10
2022-12-15T02:39:12.969Z,85.53
2022-12-15T02:41:40.986Z,85.75
2022-12-15T02:44:34.264Z,86.65
2022-12-15T02:47:25.126Z,82.70
2022-12-15T02:50:16.438Z,83.25
2022-12-15T02:52:57.981Z,83.95
2022-12-15T02:55:40.190Z,82.65
2022-12-15T02:58:25.921Z,86.13
2022-12-15T03:01:09.020Z,84.88
2022-12-15T03:03:37.735Z,82.65
2022-12-15T03:06:05.339Z,81.97
2022-12-15T03:08:32.399Z,84.00
2022-12-15T03:10:59.450Z,82.10
2022-12-15T03:13:26.148Z,81.38
2022-12-15T03:15:52.827Z,79.53
2022-12-15T03:18:19.655Z,80.43
2022-12-15T03:20:46.337Z,78.97
2022-12-15T03:23:13.030Z,75.88
2022-12-15T03:25:39.708Z,78.60
2022-12-15T03:28:06.477Z,76.88
2022-12-15T03:30:33.186Z,75.70
2022-12-15T03:32:59.929Z,72.78
2022-12-15T03:35:26.649Z,76.22
2022-12-15T03:37:53.343Z,75.38
2022-12-15T03:40:20.062Z,75.57
2022-12-15T03:42:46.761Z,78.10
2022-12-15T03:45:13.475Z,79.97
2022-12-15T03:47:43.131Z,82.13
2022-12-15T03:50:10.404Z,82.20
2022-12-15T03:52:37.225Z,85.18
2022-12-15T03:55:04.582Z,79.07
2022-12-15T03:57:31.466Z,79.72
2022-12-15T03:59:58.366Z,76.03
2022-12-15T04:02:25.684Z,76.78
2022-12-15T04:04:52.546Z,75.50
2022-12-15T04:07:19.427Z,74.53
2022-12-15T04:09:46.141Z,75.35
2022-12-15T04:12:12.871Z,73.10
2022-12-15T04:14:39.560Z,73.15
2022-12-15T04:17:06.442Z,72.75
2022-12-15T04:19:33.168Z,70.07
2022-12-15T04:21:59.841Z,70.85
2022-12-15T04:24:26.587Z,73.72
2022-12-15T04:26:53.247Z,71.00
2022-12-15T04:29:19.956Z,72.65
2022-12-15T04:31:46.716Z,73.13
2022-12-15T04:34:16.683Z,72.13
2022-12-15T04:36:44.569Z,70.53
2022-12-15T04:39:11.553Z,69.55
2022-12-15T04:41:38.599Z,71.00
2022-12-15T04:44:05.825Z,70.95
2022-12-15T04:46:32.608Z,72.32
2022-12-15T04:48:59.677Z,73.20
2022-12-15T04:51:26.316Z,70.68
2022-12-15T04:53:53.019Z,72.35
2022-12-15T04:56:19.837Z,71.70
2022-12-15T04:58:47.557Z,70.35
2022-12-15T05:01:14.275Z,73.18
2022-12-15T05:03:40.994Z,71.82
2022-12-15T05:06:08.387Z,69.50
2022-12-15T05:08:35.097Z,72.90
2022-12-15T05:11:01.836Z,69.65
2022-12-15T05:13:28.768Z,69.47
2022-12-15T05:15:55.882Z,71.50
2022-12-15T05:18:22.898Z,67.22
2022-12-15T05:20:50.067Z,68.57
2022-12-15T05:23:17.097Z,68.35
2022-12-15T05:25:44.138Z,65.22
2022-12-15T05:28:10.845Z,64.30
2022-12-15T05:30:37.967Z,66.60
2022-12-15T05:33:05.722Z,66.43
2022-12-15T05:35:32.410Z,66.30
2022-12-15T05:37:59.565Z,65.85
2022-12-15T05:40:26.226Z,68.13
2022-12-15T05:42:52.902Z,68.75
2022-12-15T05:45:21.535Z,72.13
2022-12-15T05:47:51.846Z,72.47
2022-12-15T05:50:19.084Z,72.88
2022-12-15T05:52:49.318Z,71.22
2022-12-15T05:55:17.208Z,69.15
2022-12-15T05:57:43.868Z,72.55
2022-12-15T06:00:10.927Z,73.22
2022-12-15T06:02:37.770Z,71.22
2022-12-15T06:05:04.887Z,72.75
2022-12-15T06:07:31.652Z,74.28
2022-12-15T06:09:58.297Z,71.43
2022-12-15T06:12:24.964Z,74.78
2022-12-15T06:14:51.640Z,73.18
2022-12-15T06:17:18.431Z,76.25
2022-12-15T06:19:45.084Z,73.22
2022-12-15T06:22:11.825Z,73.78
2022-12-15T06:24:38.920Z,74.20
2022-12-15T06:27:05.616Z,72.20
2022-12-15T06:29:32.332Z,71.10
2022-12-15T06:31:59.064Z,73.00
2022-12-15T06:34:25.914Z,73.45
2022-12-15T06:36:52.637Z,71.70
2022-12-15T06:39:19.418Z,70.65
2022-12-15T06:41:46.445Z,71.10
2022-12-15T06:44:14.891Z,70.13
2022-12-15T06:46:42.371Z,68.65
2022-12-15T06:49:09.415Z,69.32
2022-12-15T06:51:36.119Z,71.80
2022-12-15T06:54:02.953Z,68.70
2022-12-15T06:56:34.356Z,67.78
2022-12-15T06:59:03.348Z,70.18
2022-12-15T07:01:31.021Z,67.57
2022-12-15T07:03:58.565Z,67.25
2022-12-15T07:06:25.795Z,66.55
2022-12-15T07:08:53.682Z,64.95
2022-12-15T07:11:21.935Z,64.93
2022-12-15T07:13:50.380Z,64.03
2022-12-15T07:16:17.249Z,61.25
2022-12-15T07:18:44.074Z,61.63
2022-12-15T07:21:10.953Z,60.60
2022-12-15T07:23:54.171Z,62.88
2022-12-15T07:26:22.145Z,64.22
2022-12-15T07:28:48.830Z,62.67
2022-12-15T07:31:15.805Z,64.75
2022-12-15T07:33:42.735Z,63.53
2022-12-15T07:36:10.172Z,64.60
2022-12-15T07:38:37.009Z,65.05
2022-12-15T07:41:05.868Z,64.18
2022-12-15T07:43:33.257Z,64.47
2022-12-15T07:46:00.487Z,63.55
2022-12-15T07:48:27.864Z,59.10
2022-12-15T07:50:54.587Z,62.55
2022-12-15T07:53:21.289Z,62.10
2022-12-15T07:56:07.480Z,61.17
2022-12-15T07:58:36.200Z,61.00
2022-12-15T08:01:08.424Z,61.28
2022-12-15T08:03:36.710Z,59.83
2022-12-15T08:06:12.080Z,61.63
2022-12-15T08:08:39.879Z,58.90
2022-12-15T08:11:08.360Z,58.03
2022-12-15T08:16:22.833Z,57.00
2022-12-15T08:18:49.564Z,56.67
2022-12-15T08:21:16.339Z,56.22
2022-12-15T08:23:43.156Z,60.05
2022-12-15T08:26:15.306Z,57.83
2022-12-15T08:28:43.165Z,56.33
2022-12-15T08:31:12.625Z,56.95
2022-12-15T08:33:40.421Z,55.15
2022-12-15T08:36:09.794Z,56.75
2022-12-15T08:38:38.385Z,54.50
2022-12-15T08:41:14.378Z,57.25
2022-12-15T08:43:47.477Z,57.88
2022-12-15T08:46:19.675Z,56.05
2022-12-15T08:48:47.257Z,55.97
2022-12-15T08:51:14.547Z,56.95
2022-12-15T08:53:41.286Z,56.42
2022-12-15T08:56:10.791Z,56.47
2022-12-15T08:58:37.515Z,55.78
2022-12-15T09:01:10.983Z,55.90
2022-12-15T09:03:37.927Z,56.30
2022-12-15T09:06:06.971Z,56.70
2022-12-15T09:08:34.887Z,56.50
2022-12-15T09:11:02.560Z,55.83
2022-12-15T09:13:30.174Z,57.78
2022-12-15T09:16:10.997Z,55.72
2022-12-15T09:18:38.825Z,57.28
2022-12-15T09:21:07.503Z,56.45
2022-12-15T09:23:36.003Z,55.53
2022-12-15T09:26:11.687Z,57.40
2022-12-15T09:28:38.902Z,56.55
2022-12-15T09:31:13.648Z,55.97
2022-12-15T09:33:41.469Z,56.45
2022-12-15T09:36:09.461Z,57.75
2022-12-15T09:38:40.809Z,55.33
2022-12-15T09:41:32.317Z,56.42
2022-12-15T09:44:01.263Z,54.25
2022-12-15T09:46:43.685Z,58.00
2022-12-15T09:49:16.488Z,57.65
2022-12-15T09:52:01.066Z,55.40
2022-12-15T09:54:32.643Z,56.92
2022-12-15T09:57:04.865Z,55.67
2022-12-15T09:59:58.860Z,54.83
2022-12-15T10:02:55.316Z,57.80
2022-12-15T10:08:30.201Z,55.40
2022-12-15T10:11:03.975Z,55.30
2022-12-15T10:13:53.718Z,54.60
2022-12-15T10:16:52.831Z,54.83
2022-12-15T10:19:42.129Z,51.33
2022-12-15T10:22:31.367Z,53.42
2022-12-15T10:25:10.837Z,55.97
2022-12-15T10:27:59.320Z,54.90
2022-12-15T10:30:26.074Z,55.90
2022-12-15T10:33:17.423Z,55.67
2022-12-15T10:35:44.366Z,54.60
2022-12-15T10:38:37.017Z,55.55
2022-12-15T10:41:07.796Z,54.38
2022-12-15T10:43:42.643Z,54.03
2022-12-15T10:46:19.746Z,55.08
2022-12-15T10:48:52.309Z,53.50
2022-12-15T10:51:34.645Z,51.03
2022-12-15T10:54:10.486Z,51.38
2022-12-15T10:56:52.782Z,52.58
2022-12-15T10:59:32.376Z,51.75
2022-12-15T11:02:25.081Z,52.78
2022-12-15T11:04:56.338Z,52.90
2022-12-15T11:07:23.437Z,51.45
2022-12-15T11:09:51.001Z,52.75
2022-12-15T11:12:24.237Z,52.88
2022-12-15T11:14:51.553Z,51.58
2022-12-15T11:17:23.284Z,52.72
2022-12-15T11:20:12.862Z,52.45
2022-12-15T11:22:50.289Z,52.47
2022-12-15T11:25:25.504Z,51.90
2022-12-15T11:27:56.825Z,54.22
2022-12-15T11:30:33.708Z,53.17
2022-12-15T11:33:01.279Z,49.55
2022-12-15T11:35:53.731Z,51.38
2022-12-15T11:38:47.117Z,54.58
2022-12-15T11:41:43.914Z,54.53
2022-12-15T11:44:10.812Z,52.45
2022-12-15T11:46:44.086Z,54.88
2022-12-15T11:49:28.116Z,52.40
2022-12-15T11:52:02.996Z,52.60
2022-12-15T11:54:55.584Z,53.40
2022-12-15T11:57:50.656Z,51.15
2022-12-15T12:00:20.470Z,51.95
2022-12-15T12:02:52.916Z,52.30
2022-12-15T12:05:36.793Z,52.75
2022-12-15T12:08:25.275Z,51.15
2022-12-15T12:11:18.357Z,54.10
2022-12-15T12:14:18.807Z,53.47
2022-12-15T12:17:06.777Z,53.60
2022-12-15T12:19:41.399Z,51.63
2022-12-15T12:22:21.391Z,52.88
2022-12-15T12:25:03.510Z,52.05
2022-12-15T12:27:32.972Z,50.97
2022-12-15T12:30:13.075Z,52.13
2022-12-15T12:32:50.593Z,51.90
2022-12-15T12:35:38.457Z,52.20
2022-12-15T12:38:11.401Z,51.15
2022-12-15T12:40:41.268Z,50.35
2022-12-15T12:43:31.841Z,49.15
2022-12-15T12:46:03.878Z,49.85
2022-12-15T12:48:58.941Z,49.22
2022-12-15T12:51:34.121Z,49.80
2022-12-15T12:54:01.713Z,49.40
2022-12-15T12:56:43.372Z,49.53
2022-12-15T12:59:28.886Z,49.65
2022-12-15T13:01:57.348Z,49.83
2022-12-15T13:04:32.817Z,49.47
2022-12-15T13:07:06.798Z,51.85
2022-12-15T13:09:44.144Z,51.53
2022-12-15T13:12:51.679Z,51.97
2022-12-15T13:15:19.153Z,52.25
2022-12-15T13:17:51.782Z,51.70
2022-12-15T13:20:20.589Z,49.15
2022-12-15T13:25:36.245Z,51.05
2022-12-15T13:28:17.849Z,50.45
2022-12-15T13:31:19.247Z,50.33
2022-12-15T13:33:52.351Z,50.00
2022-12-15T13:36:37.308Z,49.22
2022-12-15T13:39:13.025Z,49.15
2022-12-15T13:44:43.841Z,46.30
2022-12-15T13:47:30.167Z,46.42
2022-12-15T13:50:09.058Z,46.42
2022-12-15T13:53:20.342Z,46.15
2022-12-15T13:55:39.657Z,44.72
2022-12-15T13:58:17.587Z,48.40
2022-12-15T14:00:56.645Z,46.63
2022-12-15T14:03:24.149Z,46.38
2022-12-15T14:05:59.051Z,46.22
2022-12-15T14:08:29.305Z,49.20
2022-12-15T14:10:58.930Z,48.10
2022-12-15T14:13:29.433Z,48.65
2022-12-15T14:15:59.479Z,47.42
2022-12-15T14:18:37.359Z,48.50
2022-12-15T14:21:19.932Z,48.53
2022-12-15T14:24:11.357Z,49.10
2022-12-15T14:26:33.406Z,49.35
2022-12-15T14:29:05.144Z,49.47
2022-12-15T14:31:32.227Z,50.70
2022-12-15T14:34:08.547Z,51.03
2022-12-15T14:36:36.548Z,49.70
2022-12-15T14:39:07.377Z,51.15
2022-12-15T14:41:43.471Z,49.90
2022-12-15T14:44:38.396Z,49.22
2022-12-15T14:47:16.065Z,50.47
2022-12-15T14:49:44.775Z,49.70
2022-12-15T14:52:25.549Z,50.83
2022-12-15T14:54:59.821Z,49.47
2022-12-15T14:57:37.728Z,49.70
2022-12-15T15:00:24.342Z,48.78
2022-12-15T15:03:13.043Z,50.72
2022-12-15T15:03:18.347Z,49.90
2022-12-15T15:05:48.197Z,49.55
2022-12-15T15:08:23.695Z,48.45
2022-12-15T15:10:53.337Z,49.65
2022-12-15T15:13:24.347Z,51.33
2022-12-15T15:15:56.931Z,52.50
2022-12-15T15:18:27.215Z,50.75
2022-12-15T15:21:04.407Z,50.40
2022-12-15T15:23:32.050Z,50.55
2022-12-15T15:26:09.304Z,51.95
2022-12-15T15:28:38.352Z,52.78
2022-12-15T15:31:28.589Z,51.97
2022-12-15T15:33:57.399Z,51.72
2022-12-15T15:36:33.369Z,52.50
2022-12-15T15:39:02.549Z,50.90
2022-12-15T15:41:33.593Z,51.40
2022-12-15T15:44:01.969Z,52.78
2022-12-15T15:46:31.708Z,52.15
2022-12-15T15:49:13.855Z,51.88
2022-12-15T15:51:40.623Z,51.83
2022-12-15T15:54:17.214Z,51.15
2022-12-15T15:56:44.170Z,52.88
2022-12-15T15:59:16.849Z,51.45
2022-12-15T16:01:46.478Z,52.22
2022-12-15T16:04:13.333Z,53.30
2022-12-15T16:06:46.697Z,53.80
2022-12-15T16:09:15.685Z,53.83
2022-12-15T16:11:43.148Z,55.10
2022-12-15T16:14:14.839Z,53.90
2022-12-15T16:16:41.771Z,53.85
2022-12-15T16:19:09.207Z,55.97
2022-12-15T16:21:36.375Z,56.53
2022-12-15T16:24:15.700Z,56.58
2022-12-15T16:26:47.692Z,56.42
2022-12-15T16:29:18.050Z,56.22
2022-12-15T16:31:45.356Z,54.78
2022-12-15T16:34:13.554Z,54.22
2022-12-15T16:36:40.922Z,54.00
2022-12-15T16:39:26.179Z,54.03
2022-12-15T16:41:54.783Z,56.97
2022-12-15T16:44:22.149Z,57.10
2022-12-15T16:46:49.087Z,55.90
2022-12-15T16:49:15.993Z,57.72
2022-12-15T16:51:52.127Z,56.08
2022-12-15T16:54:24.135Z,57.95
2022-12-15T16:56:51.508Z,57.50
2022-12-15T16:59:36.279Z,58.92
2022-12-15T17:02:26.022Z,58.10
2022-12-15T17:04:52.845Z,58.78
2022-12-15T17:07:20.768Z,59.42
2022-12-15T17:09:49.811Z,60.25
2022-12-15T17:12:17.610Z,61.28
2022-12-15T17:14:44.798Z,64.85
2022-12-15T17:17:16.760Z,62.85
2022-12-15T17:19:58.082Z,64.32
2022-12-15T17:22:30.306Z,62.35
2022-12-15T17:24:57.097Z,60.88
2022-12-15T17:27:28.280Z,62.45
2022-12-15T17:29:59.850Z,60.53
2022-12-15T17:32:26.572Z,60.92
2022-12-15T17:34:53.285Z,60.42
2022-12-15T17:37:20.043Z,60.95
2022-12-15T17:39:46.774Z,60.80
2022-12-15T17:42:20.946Z,62.55
2022-12-15T17:44:48.616Z,59.35
2022-12-15T17:47:16.647Z,60.88
2022-12-15T17:49:43.932Z,61.47
2022-12-15T17:52:19.418Z,62.20
2022-12-15T17:54:46.227Z,60.72
2022-12-15T17:57:12.925Z,62.83
2022-12-15T17:59:39.698Z,61.53
2022-12-15T18:02:08.187Z,60.42
2022-12-15T18:04:34.920Z,61.03
2022-12-15T18:07:02.677Z,59.78
2022-12-15T18:09:30.879Z,62.33
2022-12-15T18:11:57.848Z,61.22
2022-12-15T18:14:24.519Z,61.38
2022-12-15T18:16:51.197Z,61.47
2022-12-15T18:19:17.884Z,61.13
2022-12-15T18:21:44.619Z,64.57
2022-12-15T18:24:16.775Z,61.67
2022-12-15T18:26:43.802Z,63.35
2022-12-15T18:29:15.891Z,65.43
2022-12-15T18:31:42.878Z,65.80
2022-12-15T18:34:13.153Z,64.20
2022-12-15T18:36:39.933Z,65.20
2022-12-15T18:39:20.928Z,67.07
2022-12-15T18:41:48.554Z,65.35
2022-12-15T18:44:27.624Z,66.88
2022-12-15T18:46:55.183Z,66.97
2022-12-15T18:49:22.923Z,66.70
2022-12-15T18:51:49.889Z,68.70
2022-12-15T18:54:25.643Z,69.47
2022-12-15T18:56:52.400Z,69.03
2022-12-15T18:59:21.574Z,69.25
2022-12-15T19:01:48.956Z,67.25
2022-12-15T19:04:16.069Z,68.13
2022-12-15T19:06:44.301Z,67.80
2022-12-15T19:09:18.059Z,65.40
2022-12-15T19:11:47.517Z,65.63
2022-12-15T19:14:14.470Z,66.30
2022-12-15T19:16:41.177Z,65.50
2022-12-15T19:19:15.604Z,66.88
2022-12-15T19:21:44.000Z,64.30
2022-12-15T19:24:28.825Z,65.80
2022-12-15T19:26:55.536Z,65.05
2022-12-15T19:29:22.966Z,67.72
2022-12-15T19:31:49.849Z,66.05
2022-12-15T19:34:16.703Z,66.40
2022-12-15T19:36:43.417Z,65.95
2022-12-15T19:39:22.254Z,68.65
2022-12-15T19:41:49.204Z,68.32
2022-12-15T19:44:16.218Z,66.88
2022-12-15T19:46:44.095Z,64.30
2022-12-15T19:49:10.904Z,66.43
2022-12-15T19:51:38.914Z,65.85
2022-12-15T19:54:05.814Z,66.68
2022-12-15T19:56:32.809Z,65.07
2022-12-15T19:58:59.481Z,66.00
2022-12-15T20:01:26.295Z,64.65
2022-12-15T20:03:53.347Z,66.40
2022-12-15T20:06:24.979Z,65.15
2022-12-15T20:08:54.687Z,64.85
2022-12-15T20:11:24.811Z,65.43
2022-12-15T20:13:52.726Z,64.30
2022-12-15T20:16:21.278Z,63.58
2022-12-15T20:18:50.438Z,68.20
2022-12-15T20:21:26.810Z,68.20
2022-12-15T20:23:59.790Z,66.20
2022-12-15T20:26:30.559Z,65.43
2022-12-15T20:28:57.427Z,65.28
2022-12-15T20:31:25.479Z,67.50
2022-12-15T20:33:52.448Z,68.32
2022-12-15T20:36:23.553Z,67.95
2022-12-15T20:38:51.737Z,67.63
2022-12-15T20:41:21.322Z,68.13
2022-12-15T20:43:48.864Z,68.15
2022-12-15T20:46:24.853Z,67.32
2022-12-15T20:48:53.671Z,67.10
2022-12-15T20:51:31.690Z,67.95
2022-12-15T20:54:00.512Z,68.50
2022-12-15T20:56:27.510Z,68.95
2022-12-15T20:58:55.966Z,66.03
2022-12-15T21:01:24.141Z,69.40
2022-12-15T21:03:53.857Z,68.15
2022-12-15T21:06:21.111Z,68.07
2022-12-15T21:08:47.855Z,71.18
2022-12-15T21:11:18.123Z,67.72
2022-12-15T21:13:45.842Z,68.70
2022-12-15T21:16:18.595Z,70.35
2022-12-15T21:21:39.492Z,69.15
2022-12-15T21:24:18.871Z,69.35
2022-12-15T21:26:46.400Z,69.60
2022-12-15T21:29:15.761Z,69.70
2022-12-15T21:31:45.865Z,69.55
2022-12-15T21:34:13.283Z,67.40
2022-12-15T21:36:42.784Z,68.65
2022-12-15T21:39:15.386Z,66.63
2022-12-15T21:41:43.340Z,68.07
2022-12-15T21:44:14.288Z,66.47
2022-12-15T21:46:41.538Z,67.00
2022-12-15T21:49:15.454Z,71.13
2022-12-15T21:51:46.138Z,67.35
2022-12-15T21:54:23.676Z,67.85
2022-12-15T21:56:53.540Z,66.38
2022-12-15T21:59:24.033Z,66.88
2022-12-15T22:01:53.439Z,68.50
2022-12-15T22:04:30.555Z,67.70
2022-12-15T22:06:57.780Z,68.80
2022-12-15T22:09:24.646Z,68.47
2022-12-15T22:12:01.502Z,67.45
2022-12-15T22:14:32.825Z,67.80
2022-12-15T22:17:01.121Z,67.75
2022-12-15T22:19:28.081Z,68.22
2022-12-15T22:21:54.869Z,70.25
2022-12-15T22:24:22.034Z,69.93
2022-12-15T22:27:21.917Z,70.53
2022-12-15T22:29:49.902Z,68.93
2022-12-15T22:32:17.589Z,69.30
2022-12-15T22:34:47.305Z,68.22
2022-12-15T22:37:14.213Z,66.93
2022-12-15T22:39:43.308Z,63.47
2022-12-15T22:42:16.699Z,65.95
2022-12-15T22:44:44.244Z,66.55
2022-12-15T22:47:11.168Z,67.18
2022-12-15T22:49:40.201Z,65.45
2022-12-15T22:52:20.438Z,64.00
2022-12-15T22:54:47.423Z,67.40
2022-12-15T22:57:26.326Z,64.97
2022-12-15T23:00:01.029Z,65.72
2022-12-15T23:02:42.824Z,67.47
2022-12-15T23:05:11.746Z,66.70
2022-12-15T23:07:38.644Z,64.13
2022-12-15T23:10:06.006Z,65.20
2022-12-15T23:12:32.750Z,62.63
2022-12-15T23:14:59.406Z,62.95
2022-12-15T23:17:26.074Z,63.65
2022-12-15T23:19:52.752Z,65.20
2022-12-15T23:22:19.549Z,66.57
2022-12-15T23:24:46.190Z,70.03
2022-12-15T23:27:13.565Z,67.32
2022-12-15T23:29:40.241Z,64.05
2022-12-15T23:32:06.933Z,63.03
2022-12-15T23:34:33.644Z,62.20
2022-12-15T23:37:00.322Z,63.00
2022-12-15T23:39:27.544Z,61.50
2022-12-15T23:41:54.251Z,63.15
2022-12-15T23:44:21.446Z,63.53
2022-12-15T23:46:48.216Z,63.92
2022-12-15T23:49:15.027Z,59.97
2022-12-15T23:51:41.710Z,60.40
2022-12-15T23:54:08.419Z,60.40
2022-12-15T23:56:35.093Z,59.45
2022-12-15T23:59:01.804Z,59.28
